Time;durP1;ratioP1;P1;durP2;ratioP2;P2;SDS_P1;SDS_P2;PMS_P1;PMS_P2;Temp;Humidity;BMP_temperature;BMP_pressure;BME280_temperature;BME280_humidity;BME280_pressure;Samples;Min_cycle;Max_cycle;Signal;HPM_P1;HPM_P2
2024/04/19 00:01:32;;;;;;;1.63;1.33;;;13.70;99.90;;;14.28;49.41;101188.25;5145586;26;105574;-41
2024/04/19 00:03:57;;;;;;;2.53;1.50;;;13.70;99.90;;;14.21;48.85;101184.13;5079601;26;99170;-44
2024/04/19 00:06:26;;;;;;;7.13;1.30;;;13.70;99.90;;;14.15;50.87;101173.78;5180365;26;118016;-39
2024/04/19 00:08:54;;;;;;;1.97;1.20;;;13.60;99.90;;;14.14;50.33;101164.09;5189026;26;99868;-46
2024/04/19 00:11:23;;;;;;;2.43;1.70;;;13.50;99.90;;;14.08;49.29;101162.56;5196182;26;96456;-45
2024/04/19 00:14:02;;;;;;;2.50;1.70;;;13.50;99.90;;;13.96;47.90;101150.69;5209562;26;93749;-42
2024/04/19 00:16:42;;;;;;;3.23;1.63;;;13.50;99.90;;;13.89;47.71;101156.31;5119555;26;112591;-44
2024/04/19 00:19:14;;;;;;;3.57;1.37;;;13.50;99.90;;;13.81;50.52;101142.50;5171534;26;119953;-46
2024/04/19 00:21:39;;;;;;;2.27;0.80;;;13.40;99.90;;;13.84;50.65;101140.56;5165809;26;103690;-41
2024/04/19 00:24:15;;;;;;;1.50;0.93;;;13.30;99.90;;;13.86;49.91;101130.75;5155626;26;97317;-44
2024/04/19 00:26:46;;;;;;;1.63;1.23;;;13.40;99.90;;;13.90;51.43;101127.06;5153431;26;96984;-43
2024/04/19 00:29:15;;;;;;;4.20;1.87;;;13.40;99.90;;;13.89;51.06;101120.06;5023486;26;94889;-41
2024/04/19 00:31:41;;;;;;;3.07;1.60;;;13.40;99.90;;;13.81;49.71;101116.84;5010444;26;98494;-43
2024/04/19 00:34:17;;;;;;;2.93;1.63;;;13.40;99.90;;;13.88;49.05;101115.66;5109479;26;93953;-43
2024/04/19 00:36:43;;;;;;;2.73;1.13;;;13.50;99.90;;;13.91;51.42;101107.59;5103136;26;96442;-46
2024/04/19 00:39:17;;;;;;;4.03;1.50;;;13.40;99.90;;;13.88;49.83;101107.69;5131398;26;95890;-40
2024/04/19 00:41:52;;;;;;;2.70;1.50;;;13.40;99.90;;;13.97;48.01;101104.66;5173764;26;93887;-47
2024/04/19 00:44:18;;;;;;;4.00;1.20;;;13.60;99.90;;;14.14;51.59;101097.75;5135287;26;94204;-41
2024/04/19 00:46:46;;;;;;;4.47;1.70;;;13.70;99.90;;;14.06;50.27;101105.22;5081222;26;97487;-44
2024/04/19 00:49:29;;;;;;;3.67;1.90;;;13.60;99.90;;;14.23;50.92;101108.00;5128468;26;97180;-42
2024/04/19 00:52:07;;;;;;;3.73;1.10;;;13.80;99.90;;;14.43;49.42;101126.53;5098726;26;100759;-39
2024/04/19 00:54:40;;;;;;;2.83;1.70;;;14.10;99.90;;;14.34;49.86;101116.34;5065357;26;95249;-38
2024/04/19 00:57:07;;;;;;;2.57;1.57;;;14.20;99.90;;;14.21;49.27;101109.84;5154463;26;94116;-46
2024/04/19 00:59:35;;;;;;;2.60;1.73;;;14.10;99.90;;;14.20;50.71;101114.28;5185530;26;101926;-42
2024/04/19 01:02:02;;;;;;;2.67;1.40;;;14.10;99.90;;;14.36;49.93;101103.88;5121218;26;93440;-43
2024/04/19 01:04:34;;;;;;;4.47;1.80;;;14.30;99.90;;;14.49;50.68;101094.47;5207579;26;93993;-38
2024/04/19 01:07:03;;;;;;;4.93;1.83;;;14.40;99.90;;;14.46;49.94;101097.22;5249001;26;98867;-37
2024/04/19 01:09:29;;;;;;;4.17;2.17;;;14.30;99.90;;;14.48;49.23;101098.06;5206378;26;94862;-40
2024/04/19 01:11:55;;;;;;;3.87;1.60;;;14.40;99.90;;;14.41;nan;101091.25;5080113;26;94050;-40
2024/04/19 01:14:27;;;;;;;4.00;2.07;;;14.20;99.90;;;14.29;49.45;101091.78;5166886;26;93795;-38
2024/04/19 01:16:55;;;;;;;2.90;2.10;;;14.20;99.90;;;14.41;50.62;101077.13;5252178;26;98392;-42
2024/04/19 01:19:23;;;;;;;3.33;1.73;;;14.20;99.90;;;14.49;50.53;101078.53;5202638;26;97954;-39
2024/04/19 01:22:01;;;;;;;3.20;1.70;;;14.30;99.90;;;14.61;50.82;101071.81;5235576;26;93606;-36
2024/04/19 01:24:44;;;;;;;4.03;1.87;;;14.50;99.90;;;14.59;50.61;101068.34;5195154;26;100018;-38
2024/04/19 01:27:20;;;;;;;3.67;2.27;;;14.40;99.90;;;14.65;50.04;101067.22;5259859;26;99574;-42
2024/04/19 01:29:46;;;;;;;4.07;1.93;;;14.40;99.90;;;14.69;50.48;101068.78;5216466;26;115253;-40
2024/04/19 01:32:12;;;;;;;3.90;2.20;;;14.40;99.90;;;14.72;49.80;101063.34;5202198;25;95827;-37
2024/04/19 01:34:37;;;;;;;2.40;1.77;;;14.50;99.90;;;14.66;50.29;101058.31;5211887;26;103455;-42
2024/04/19 01:37:14;;;;;;;2.80;2.00;;;14.30;99.90;;;14.71;49.95;101051.84;5197054;26;97922;-41
2024/04/19 01:39:42;;;;;;;3.40;2.30;;;14.40;99.90;;;14.58;49.89;101056.88;5134859;26;95446;-37
2024/04/19 01:42:10;;;;;;;3.03;1.97;;;14.30;99.90;;;14.73;50.51;101049.13;5258540;26;95327;-40
2024/04/19 01:44:38;;;;;;;4.10;1.77;;;14.50;99.90;;;14.77;50.61;101045.41;5294368;25;94622;-42
2024/04/19 01:47:09;;;;;;;3.00;1.93;;;14.50;99.90;;;14.70;50.22;101039.50;5237467;26;96028;-37
2024/04/19 01:49:35;;;;;;;3.20;1.80;;;14.50;99.90;;;14.66;50.47;101031.78;5232082;26;97759;-42
2024/04/19 01:52:05;;;;;;;3.60;1.93;;;14.40;99.90;;;14.64;49.98;101030.97;5203675;26;96241;-44
2024/04/19 01:54:40;;;;;;;3.77;2.40;;;14.30;99.90;;;14.41;51.28;101021.38;5217991;26;94060;-39
2024/04/19 01:57:05;;;;;;;3.00;2.17;;;14.00;99.90;;;14.48;51.08;101023.72;5160767;26;95369;-40
2024/04/19 01:59:37;;;;;;;2.50;2.10;;;14.10;99.90;;;14.37;50.25;101025.97;5145009;26;105742;-44
2024/04/19 02:02:06;;;;;;;2.83;2.10;;;14.00;99.90;;;14.34;51.21;101020.81;5140932;26;93982;-38
2024/04/19 02:04:45;;;;;;;4.03;2.60;;;14.00;99.90;;;14.45;49.70;101023.84;5159968;26;100191;-41
2024/04/19 02:07:13;;;;;;;4.93;2.20;;;14.20;99.90;;;14.50;49.93;101005.06;5108696;26;94048;-46
2024/04/19 02:09:39;;;;;;;2.37;2.00;;;14.20;99.90;;;14.39;51.19;101008.19;5176763;26;93974;-40
2024/04/19 02:12:07;;;;;;;3.50;1.97;;;14.10;99.90;;;14.26;50.79;101001.72;5167101;26;93429;-38
2024/04/19 02:14:37;;;;;;;2.63;1.87;;;14.00;99.90;;;14.27;51.08;100998.97;5239332;26;94786;-44
2024/04/19 02:17:06;;;;;;;5.10;1.87;;;14.00;99.90;;;14.21;50.51;100985.16;5198196;26;98779;-42
2024/04/19 02:19:39;;;;;;;5.77;1.97;;;14.00;99.90;;;14.30;51.51;100979.41;5093763;26;96700;-42
2024/04/19 02:22:05;;;;;;;3.03;2.33;;;14.00;99.90;;;14.33;50.61;100987.25;5223124;25;94137;-43
2024/04/19 02:24:34;;;;;;;3.10;2.33;;;14.20;99.90;;;14.38;51.22;100990.53;5236389;26;94067;-41
2024/04/19 02:27:06;;;;;;;3.13;2.60;;;14.20;99.90;;;14.34;50.11;100978.34;5219249;26;101451;-45
2024/04/19 02:32:19;;;;;;;5.27;2.73;;;14.10;99.90;;;14.22;50.53;100963.00;5257947;26;96935;-41
2024/04/19 02:34:53;;;;;;;4.77;2.20;;;14.00;99.90;;;14.10;52.24;100947.63;5170027;26;95820;-43
2024/04/19 02:37:21;;;;;;;5.83;2.63;;;13.80;99.90;;;14.04;52.47;100942.63;5237364;26;113529;-44
2024/04/19 02:39:49;;;;;;;4.90;3.30;;;13.70;99.90;;;14.08;50.77;100944.19;5099230;26;95668;-44
2024/04/19 02:42:24;;;;;;;2.73;2.53;;;13.90;99.90;;;13.99;52.08;100930.41;5202703;26;93701;-47
2024/04/19 02:44:53;;;;;;;4.07;2.30;;;13.70;99.90;;;14.03;52.84;100927.59;5152725;26;99501;-41
2024/04/19 02:47:21;;;;;;;4.47;2.70;;;13.70;99.90;;;14.08;51.36;100922.97;5159825;26;93484;-43
2024/04/19 02:49:55;;;;;;;2.73;2.43;;;13.80;99.90;;;13.90;52.77;100925.53;5194665;26;101713;-43
2024/04/19 02:52:23;;;;;;;3.47;2.63;;;13.70;99.90;;;13.88;52.06;100916.75;5089065;26;97790;-40
2024/04/19 02:54:49;;;;;;;2.87;2.33;;;13.60;99.90;;;13.94;52.60;100916.50;5202913;26;93355;-42
2024/04/19 02:57:25;;;;;;;6.53;2.47;;;13.60;99.90;;;13.85;51.98;100906.31;5216109;26;100134;-41
2024/04/19 02:59:55;;;;;;;3.23;2.30;;;13.50;99.90;;;14.00;52.73;100907.41;5257257;25;98737;-43
2024/04/19 03:02:21;;;;;;;2.40;1.80;;;13.60;99.90;;;13.94;52.62;100899.72;5277374;26;99287;-42
2024/04/19 03:04:55;;;;;;;3.00;1.97;;;13.60;99.90;;;14.02;52.82;100897.56;5168327;26;97450;-42
2024/04/19 03:07:23;;;;;;;3.97;3.10;;;13.70;99.90;;;13.85;52.49;100885.09;5147600;26;99774;-43
2024/04/19 03:09:52;;;;;;;3.77;2.63;;;13.50;99.90;;;13.97;52.91;100886.31;5205214;26;105039;-44
2024/04/19 03:12:19;;;;;;;3.80;2.60;;;13.50;99.90;;;14.00;51.98;100871.13;5283705;26;99325;-40
2024/04/19 03:14:48;;;;;;;1.07;0.97;;;13.60;99.90;;;13.97;53.18;100868.63;5276909;26;93457;-41
2024/04/19 03:17:20;;;;;;;2.43;2.03;;;13.50;99.90;;;14.08;52.50;100859.31;5293857;26;97719;-43
2024/04/19 03:19:56;;;;;;;1.50;1.40;;;13.60;99.90;;;14.13;52.37;100857.28;5206641;26;94316;-45
2024/04/19 03:22:22;;;;;;;2.30;1.90;;;13.70;99.90;;;14.11;52.22;100853.84;5181795;26;95341;-43
2024/04/19 03:24:47;;;;;;;2.37;1.90;;;13.80;99.90;;;14.02;51.65;100854.28;5233147;26;98680;-43
2024/04/19 03:27:13;;;;;;;2.90;1.93;;;13.80;99.90;;;14.10;51.68;100852.13;5166603;25;97951;-38
2024/04/19 03:29:39;;;;;;;4.60;1.87;;;13.80;99.90;;;13.98;52.46;100849.13;5247714;26;94524;-42
2024/04/19 03:32:08;;;;;;;3.97;1.90;;;13.70;99.90;;;13.80;52.82;100849.97;5260131;26;93391;-42
2024/04/19 03:34:34;;;;;;;2.43;1.30;;;13.60;99.90;;;13.77;53.64;100839.53;5308170;26;93472;-42
2024/04/19 03:37:00;;;;;;;2.60;1.40;;;13.40;99.90;;;13.95;53.20;100832.50;5281121;25;101802;-39
2024/04/19 03:39:28;;;;;;;3.57;2.33;;;13.60;99.90;;;13.83;53.44;100825.97;5264822;25;101487;-40
2024/04/19 03:41:56;;;;;;;2.23;1.37;;;13.50;99.90;;;13.83;52.80;100833.94;5269704;26;93592;-42
2024/04/19 03:47:09;;;;;;;2.73;1.97;;;13.30;99.90;;;13.53;53.91;100825.59;5169552;26;97684;-45
2024/04/19 03:49:38;;;;;;;2.33;1.37;;;13.20;99.90;;;13.67;53.88;100811.69;5156173;26;103350;-39
2024/04/19 03:52:06;;;;;;;2.83;1.80;;;13.30;99.90;;;13.77;53.27;100812.16;5172931;26;93737;-44
2024/04/19 03:54:34;;;;;;;2.70;1.60;;;13.50;99.90;;;13.78;52.53;100809.44;5229050;26;103517;-43
2024/04/19 03:57:03;;;;;;;2.20;1.37;;;13.50;99.90;;;13.94;53.26;100804.25;5177698;26;103797;-40
2024/04/19 03:59:28;;;;;;;2.50;1.60;;;13.70;99.90;;;13.89;52.39;100803.63;5214881;26;94482;-43
2024/04/19 04:01:56;;;;;;;2.50;1.53;;;13.70;99.90;;;13.86;53.24;100794.00;5260982;26;93440;-44
2024/04/19 04:04:22;;;;;;;4.07;1.57;;;13.60;99.90;;;13.79;52.72;100794.38;5189016;26;95355;-41
2024/04/19 04:06:48;;;;;;;1.63;1.20;;;13.60;99.90;;;13.86;53.25;100783.41;5143611;26;107372;-43
2024/04/19 04:09:14;;;;;;;2.73;1.20;;;13.60;99.90;;;13.88;51.69;100778.88;5214633;26;93982;-39
2024/04/19 04:11:42;;;;;;;3.83;1.40;;;13.70;99.90;;;13.95;50.55;100780.31;5207378;26;94438;-38
2024/04/19 04:14:08;;;;;;;2.57;0.80;;;13.80;99.90;;;13.81;52.15;100776.59;5197190;26;99333;-45
2024/04/19 04:16:34;;;;;;;1.77;1.00;;;13.70;99.90;;;13.86;53.22;100769.28;5254295;26;94604;-42
2024/04/19 04:19:03;;;;;;;3.60;1.17;;;13.70;99.90;;;13.84;52.73;100781.75;5204119;25;94625;-39
2024/04/19 04:21:32;;;;;;;2.53;1.10;;;13.70;99.90;;;13.82;53.15;100773.88;5257687;26;93890;-40
2024/04/19 04:23:58;;;;;;;3.53;1.50;;;13.60;99.90;;;13.75;52.42;100775.09;5303766;26;103055;-41
2024/04/19 04:26:26;;;;;;;2.13;0.80;;;13.60;99.90;;;13.74;51.93;100767.19;5294024;26;120841;-37
2024/04/19 04:29:00;;;;;;;1.90;0.90;;;13.60;99.90;;;13.78;53.32;100756.41;5200101;26;122985;-42
2024/04/19 04:31:34;;;;;;;1.13;0.60;;;13.60;99.90;;;13.57;53.54;100752.09;5209424;25;93612;-38
2024/04/19 04:34:00;;;;;;;2.13;0.73;;;13.50;99.90;;;13.60;51.98;100746.66;5165830;26;94553;-40
2024/04/19 04:36:32;;;;;;;1.20;1.10;;;13.50;99.90;;;13.49;53.63;100738.34;5208814;26;100052;-38
2024/04/19 04:38:58;;;;;;;1.00;0.70;;;13.40;99.90;;;13.37;53.08;100745.06;5158130;26;96222;-37
2024/04/19 04:41:24;;;;;;;1.20;0.60;;;13.40;99.90;;;13.29;52.68;100740.09;5249139;26;93899;-43
2024/04/19 04:44:10;;;;;;;1.40;0.60;;;13.30;99.90;;;13.57;53.80;100722.94;5297065;26;98374;-41
2024/04/19 04:46:41;;;;;;;1.07;0.60;;;13.40;99.90;;;13.40;53.68;100729.03;5257255;26;99348;-41
2024/04/19 04:49:10;;;;;;;0.73;0.43;;;13.30;99.90;;;13.11;53.31;100727.66;5180134;26;107033;-38
2024/04/19 04:51:39;;;;;;;0.93;0.63;;;13.10;99.90;;;12.90;52.75;100712.75;5157223;25;93612;-40
2024/04/19 04:54:13;;;;;;;0.70;0.60;;;12.90;99.90;;;12.78;55.38;100717.66;5045359;26;94155;-42
2024/04/19 04:56:42;;;;;;;2.20;0.70;;;12.80;99.90;;;12.90;55.09;100712.75;5172681;26;93790;-38
2024/04/19 04:59:13;;;;;;;1.17;0.70;;;12.70;99.90;;;12.70;55.27;100717.13;5258899;26;99225;-41
2024/04/19 05:01:41;;;;;;;3.03;0.70;;;12.60;99.90;;;12.99;55.71;100701.72;5251579;26;94422;-41
2024/04/19 05:04:11;;;;;;;2.10;0.57;;;12.70;99.90;;;13.13;54.38;100696.69;5161621;26;96487;-40
2024/04/19 05:06:36;;;;;;;2.10;0.60;;;12.90;99.90;;;13.33;54.98;100686.06;5179580;25;98421;-43
2024/04/19 05:09:17;;;;;;;0.50;0.40;;;13.10;99.90;;;13.20;54.13;100684.91;5201308;26;123931;-39
2024/04/19 05:11:53;;;;;;;1.00;0.50;;;13.00;99.90;;;13.44;54.44;100671.44;5187683;26;94074;-40
2024/04/19 05:14:21;;;;;;;1.77;0.70;;;13.10;99.90;;;13.23;54.62;100671.53;5219025;26;93611;-42
2024/04/19 05:16:47;;;;;;;1.70;0.30;;;12.90;99.90;;;13.50;54.67;100666.72;5163074;26;93913;-42
2024/04/19 05:19:14;;;;;;;1.33;0.33;;;13.10;99.90;;;13.56;51.64;100665.56;5099219;26;95122;-38
2024/04/19 05:21:43;;;;;;;2.23;0.60;;;13.40;99.90;;;13.35;54.78;100663.00;5122736;26;93828;-43
2024/04/19 05:24:09;;;;;;;0.87;0.50;;;13.20;99.90;;;13.46;53.04;100666.97;5215042;26;93671;-43
2024/04/19 05:26:38;;;;;;;0.50;0.40;;;13.30;99.90;;;13.21;53.93;100656.66;5099540;26;95380;-43
2024/04/19 05:29:06;;;;;;;0.90;0.40;;;12.90;99.90;;;13.00;54.61;100655.78;5141848;26;96360;-39
2024/04/19 05:31:35;;;;;;;0.40;0.40;;;12.70;99.90;;;12.85;56.48;100645.91;5161050;26;96439;-42
2024/04/19 05:34:11;;;;;;;0.50;0.40;;;12.40;99.90;;;12.84;55.08;100644.19;5140082;26;94599;-42
2024/04/19 05:36:37;;;;;;;1.07;0.57;;;12.40;99.90;;;12.89;56.24;100636.91;5167395;26;94567;-47
2024/04/19 05:39:03;;;;;;;0.60;0.50;;;12.40;99.90;;;13.01;56.08;100631.88;5098576;26;95588;-43
2024/04/19 05:41:29;;;;;;;1.63;0.67;;;12.50;99.90;;;12.66;55.92;100630.84;5219068;26;93768;-40
2024/04/19 05:43:57;;;;;;;0.53;0.20;;;12.30;99.90;;;12.79;56.78;100621.44;5208120;26;101601;-40
2024/04/19 05:46:28;;;;;;;1.60;0.30;;;12.30;99.90;;;12.65;57.11;100629.13;5208745;26;95709;-41
2024/04/19 05:48:54;;;;;;;0.60;0.30;;;12.20;99.90;;;12.73;56.59;100616.44;5195215;26;119940;-42
2024/04/19 05:51:33;;;;;;;1.03;0.93;;;12.30;99.90;;;12.53;55.49;100613.78;5202023;26;104641;-42
2024/04/19 05:53:59;;;;;;;0.60;0.40;;;12.10;99.90;;;12.64;57.01;100606.25;5250079;26;95936;-39
2024/04/19 05:56:38;;;;;;;0.40;0.40;;;12.10;99.90;;;12.76;55.12;100605.69;5157959;26;96777;-45
2024/04/19 05:59:06;;;;;;;2.97;0.50;;;12.30;99.90;;;13.00;55.79;100586.94;5130998;26;100101;-39
2024/04/19 06:01:31;;;;;;;0.40;0.30;;;12.50;99.90;;;12.93;54.96;100577.59;5276443;26;93214;-42
2024/04/19 06:04:00;;;;;;;1.00;0.50;;;12.50;99.90;;;12.93;54.72;100581.09;5282144;26;97592;-39
2024/04/19 06:06:28;;;;;;;1.23;0.50;;;12.50;99.90;;;13.00;55.79;100576.34;5194153;26;107735;-38
2024/04/19 06:08:54;;;;;;;2.07;0.47;;;12.50;99.90;;;12.88;55.08;100571.66;5221100;26;99545;-38
2024/04/19 06:11:20;;;;;;;1.10;0.40;;;12.50;99.90;;;12.74;55.75;100569.66;5236827;26;102614;-41
2024/04/19 06:13:51;;;;;;;1.90;0.50;;;12.20;99.90;;;12.91;56.45;100572.38;5206098;26;94569;-40
2024/04/19 06:16:17;;;;;;;0.67;0.30;;;12.30;99.90;;;12.97;56.58;100560.63;5181516;26;95720;-41
2024/04/19 06:18:48;;;;;;;0.60;0.20;;;12.30;99.90;;;13.10;56.28;100556.47;5131347;26;94365;-39
2024/04/19 06:21:14;;;;;;;0.90;0.37;;;12.60;99.90;;;13.14;56.30;100563.31;5170302;26;101939;-43
2024/04/19 06:23:45;;;;;;;0.60;0.60;;;12.70;99.90;;;13.13;55.94;100555.47;5172642;26;97575;-44
2024/04/19 06:26:11;;;;;;;0.60;0.30;;;12.70;99.90;;;13.23;55.34;100547.03;5212325;26;115144;-39
2024/04/19 06:28:54;;;;;;;1.07;0.20;;;12.80;99.90;;;13.45;54.80;100543.31;5241616;26;110391;-39
2024/04/19 06:31:20;;;;;;;0.50;0.40;;;12.90;99.90;;;13.22;54.47;100545.31;5137089;26;95216;-39
2024/04/19 06:33:54;;;;;;;2.60;0.50;;;12.90;99.90;;;13.09;55.86;100544.16;5072348;26;99700;-42
2024/04/19 06:36:20;;;;;;;1.63;0.50;;;12.70;99.90;;;13.26;55.11;100531.00;5177112;26;93721;-42
2024/04/19 06:38:45;;;;;;;1.23;0.30;;;12.90;99.90;;;13.34;54.88;100528.84;5123194;26;97400;-40
2024/04/19 06:41:11;;;;;;;1.53;0.60;;;13.00;99.90;;;13.49;55.06;100523.72;5279385;26;97425;-42
2024/04/19 06:43:37;;;;;;;1.80;0.40;;;13.20;99.90;;;13.31;54.70;100523.69;5198901;26;94836;-45
2024/04/19 06:46:09;;;;;;;0.97;0.50;;;13.30;99.90;;;13.10;55.55;100514.94;5207665;26;100201;-40
2024/04/19 06:48:35;;;;;;;1.17;0.40;;;13.00;99.90;;;13.31;55.57;100507.81;5098876;26;97087;-45
2024/04/19 06:51:05;;;;;;;0.80;0.50;;;13.00;99.90;;;13.25;54.81;100500.13;5187675;26;98186;-40
2024/04/19 06:53:31;;;;;;;0.23;0.23;;;13.10;99.90;;;13.12;55.77;100496.34;5258157;26;93758;-40
2024/04/19 06:55:57;;;;;;;0.40;0.37;;;13.00;99.90;;;13.27;56.04;100495.63;5260267;26;118459;-40
2024/04/19 06:58:25;;;;;;;0.60;0.47;;;13.00;99.90;;;13.32;55.60;100493.63;5225088;26;114661;-41
2024/04/19 07:01:04;;;;;;;0.73;0.67;;;13.00;99.90;;;13.13;56.78;100478.66;5256080;26;93909;-39
2024/04/19 07:03:33;;;;;;;0.57;0.40;;;12.90;99.90;;;13.10;57.01;100480.53;5283381;26;93559;-40
2024/04/19 07:06:13;;;;;;;0.90;0.40;;;12.80;99.90;;;13.24;55.41;100473.72;5227476;26;94003;-44
2024/04/19 07:09:12;;;;;;;0.77;0.30;;;13.10;99.90;;;13.11;56.86;100473.44;5153696;26;98654;-40
2024/04/19 07:11:47;;;;;;;1.47;0.50;;;12.90;99.90;;;13.34;56.33;100459.97;5065101;26;98126;-42
2024/04/19 07:14:12;;;;;;;0.40;0.37;;;13.10;99.90;;;13.47;55.70;100460.22;5048272;26;93623;-44
2024/04/19 07:16:47;;;;;;;2.27;0.60;;;13.30;99.90;;;13.41;56.37;100455.19;5072239;26;107169;-43
2024/04/19 07:19:13;;;;;;;0.50;0.40;;;13.30;99.90;;;13.56;54.47;100465.00;5077276;26;96598;-44
2024/04/19 07:21:58;;;;;;;0.50;0.50;;;13.50;99.90;;;13.53;55.22;100453.72;5194732;26;106591;-43
2024/04/19 07:24:34;;;;;;;0.50;0.40;;;13.40;99.90;;;13.56;56.00;100451.78;5063910;26;93681;-37
2024/04/19 07:27:09;;;;;;;0.50;0.40;;;13.40;99.90;;;13.66;55.24;100454.81;5090284;26;100165;-46
2024/04/19 07:29:58;;;;;;;0.50;0.50;;;13.50;99.90;;;13.71;55.31;100447.47;4995613;26;96482;-41
2024/04/19 07:32:51;;;;;;;0.40;0.33;;;13.60;99.90;;;13.75;55.05;100443.75;5124867;26;96321;-42
2024/04/19 07:35:38;;;;;;;0.87;0.60;;;13.60;99.90;;;13.61;56.86;100440.94;5016657;26;95970;-43
2024/04/19 07:38:14;;;;;;;0.30;0.30;;;13.50;99.90;;;13.72;55.76;100438.56;5046550;26;97776;-41
2024/04/19 07:41:48;;;;;;;;;;;;;;;;;;;;;
2024/04/19 07:44:42;;;;;;;0.63;0.60;;;13.50;99.90;;;13.54;57.50;100418.34;4928329;26;116545;-40
2024/04/19 07:47:13;;;;;;;0.80;0.70;;;13.60;99.90;;;13.30;58.58;100423.09;5031775;26;99456;-39
2024/04/19 07:49:46;;;;;;;0.53;0.47;;;13.30;99.90;;;13.31;58.27;100423.03;5059937;26;99404;-39
2024/04/19 07:52:14;;;;;;;0.90;0.50;;;13.30;99.90;;;13.36;58.35;100415.69;4949644;26;97622;-46
2024/04/19 07:54:42;;;;;;;0.60;0.50;;;13.30;99.90;;;13.19;59.23;100409.56;4966257;26;94847;-41
2024/04/19 07:57:32;;;;;;;0.87;0.60;;;13.20;99.90;;;13.16;59.52;100418.44;5166438;26;99559;-38
2024/04/19 08:00:21;;;;;;;0.47;0.47;;;13.10;99.90;;;13.18;59.13;100411.34;5151326;26;101343;-42
2024/04/19 08:03:18;;;;;;;0.50;0.40;;;13.20;99.90;;;13.03;60.17;100412.94;4935484;26;100204;-41
2024/04/19 08:06:06;;;;;;;0.60;0.50;;;13.10;99.90;;;13.05;59.64;100404.91;4860806;26;95512;-45
2024/04/19 08:09:04;;;;;;;0.53;0.47;;;13.10;99.90;;;13.23;59.47;100404.00;5043238;26;98878;-38
2024/04/19 08:11:43;;;;;;;0.70;0.50;;;13.30;99.90;;;13.26;59.51;100403.84;4864066;26;96166;-38
2024/04/19 08:14:20;;;;;;;1.40;0.67;;;13.40;99.90;;;13.31;59.00;100407.16;4948707;26;95063;-40
2024/04/19 08:16:58;;;;;;;3.00;0.70;;;13.40;99.90;;;13.21;59.30;100395.28;5047403;26;96036;-40
2024/04/19 08:19:31;;;;;;;0.80;0.80;;;13.30;99.90;;;13.34;59.30;100391.09;5217166;26;95529;-39
2024/04/19 08:22:10;;;;;;;0.50;0.50;;;13.40;99.90;;;13.40;59.15;100390.75;5048061;26;97938;-41
2024/04/19 08:25:10;;;;;;;0.73;0.60;;;13.40;99.90;;;13.56;57.75;100392.63;4895589;26;100763;-40
2024/04/19 08:27:45;;;;;;;0.93;0.70;;;13.40;99.90;;;13.63;57.98;100391.38;4870822;26;110076;-46
2024/04/19 08:30:32;;;;;;;0.73;0.60;;;13.50;99.90;;;13.66;57.49;100391.22;4878052;26;96422;-42
2024/04/19 08:33:10;;;;;;;0.83;0.70;;;13.60;99.90;;;13.61;59.02;100388.81;5000371;26;101227;-39
2024/04/19 08:36:22;;;;;;;1.27;0.80;;;13.50;99.90;;;13.70;57.50;100383.00;4952134;26;100100;-42
2024/04/19 08:39:18;;;;;;;0.77;0.60;;;13.50;99.90;;;13.72;57.93;100377.63;4849278;27;97464;-44
2024/04/19 08:41:55;;;;;;;1.50;1.20;;;13.60;99.90;;;13.70;58.40;100377.69;4867514;26;93538;-40
2024/04/19 08:44:31;;;;;;;1.17;0.93;;;13.60;99.90;;;13.76;58.49;100378.34;4920082;26;96752;-42
2024/04/19 08:47:38;;;;;;;1.27;1.17;;;13.70;99.90;;;13.61;60.42;100369.41;4957935;26;99776;-42
2024/04/19 08:50:36;;;;;;;1.23;0.97;;;13.60;99.90;;;13.64;59.22;100366.59;4986650;26;94987;-39
2024/04/19 08:53:12;;;;;;;1.13;0.90;;;13.60;99.90;;;13.52;60.74;100368.06;4947479;26;94572;-39
2024/04/19 08:56:09;;;;;;;1.37;1.00;;;13.50;99.90;;;13.53;61.09;100368.94;5131852;26;98658;-45
2024/04/19 08:58:41;;;;;;;2.37;1.07;;;13.50;99.90;;;13.70;59.39;100361.78;4909976;26;98182;-38
2024/04/19 09:01:53;;;;;;;;;;;;;;;;;;;;;
2024/04/19 09:04:39;;;;;;;1.33;0.97;;;13.70;99.90;;;13.88;58.91;100354.66;5034585;26;110118;-44
2024/04/19 09:07:15;;;;;;;1.33;0.90;;;13.80;99.90;;;14.02;57.62;100355.69;4962002;26;100694;-43
2024/04/19 09:09:57;;;;;;;1.80;1.57;;;14.00;99.90;;;14.08;57.42;100339.47;5000489;26;98841;-39
2024/04/19 09:12:36;;;;;;;1.57;1.47;;;14.10;99.90;;;13.99;59.14;100365.53;5127665;26;93586;-46
2024/04/19 09:15:31;;;;;;;2.03;1.50;;;14.00;99.90;;;13.94;58.40;100354.34;4975117;26;97965;-38
2024/04/19 09:18:12;;;;;;;3.47;1.70;;;13.90;99.90;;;13.84;60.32;100353.09;4903526;26;97071;-45
2024/04/19 09:21:04;;;;;;;1.30;1.20;;;13.90;99.90;;;13.91;60.90;100354.50;4903537;26;99648;-39
2024/04/19 09:23:37;;;;;;;1.97;1.53;;;14.00;99.90;;;13.82;60.54;100343.53;4960910;26;94703;-40
2024/04/19 09:26:19;;;;;;;1.87;1.37;;;13.80;99.90;;;13.84;60.12;100347.81;4938265;26;112967;-39
2024/04/19 09:29:07;;;;;;;1.40;1.30;;;13.80;99.90;;;13.83;60.59;100342.59;4936134;26;98956;-42
2024/04/19 09:31:59;;;;;;;3.10;1.17;;;13.80;99.90;;;13.74;62.25;100349.22;4966154;26;98322;-48
2024/04/19 09:34:41;;;;;;;0.97;0.93;;;13.80;99.90;;;13.78;60.34;100342.84;4982259;26;98382;-41
2024/04/19 09:37:39;;;;;;;2.07;1.43;;;13.70;99.90;;;13.70;62.08;100345.03;4930854;26;102767;-39
2024/04/19 09:40:11;;;;;;;1.77;1.40;;;13.70;99.90;;;13.51;64.11;100344.31;4914152;26;94636;-38
2024/04/19 09:43:02;;;;;;;2.57;1.50;;;13.50;99.90;;;13.44;64.96;100342.91;4977324;26;101526;-40
2024/04/19 09:45:59;;;;;;;2.57;1.90;;;13.50;99.90;;;13.50;64.06;100337.31;5078423;26;95456;-44
2024/04/19 09:49:17;;;;;;;1.93;1.27;;;13.40;99.90;;;13.71;62.56;100330.84;5048533;26;98510;-42
2024/04/19 09:52:12;;;;;;;2.23;1.67;;;13.50;99.90;;;13.76;61.04;100334.13;4972632;26;101443;-40
2024/04/19 09:54:54;;;;;;;5.90;2.40;;;13.50;99.90;;;13.79;61.41;100323.34;5042098;26;99981;-42
2024/04/19 09:57:35;;;;;;;3.93;1.60;;;13.50;99.90;;;13.83;60.72;100327.53;5028724;26;96536;-39
2024/04/19 10:00:11;;;;;;;3.57;2.10;;;13.50;99.90;;;13.87;59.56;100305.22;5047586;26;98266;-40
2024/04/19 10:03:10;;;;;;;2.83;1.80;;;13.60;99.90;;;13.90;62.22;100299.78;5115345;26;103719;-38
2024/04/19 10:06:35;;;;;;;2.63;1.83;;;13.60;99.90;;;13.96;62.41;100299.41;5036280;26;103508;-40
2024/04/19 10:09:08;;;;;;;1.97;1.57;;;13.90;99.90;;;13.99;60.93;100293.94;4925963;26;98023;-40
2024/04/19 10:11:48;;;;;;;3.40;2.33;;;13.90;99.90;;;13.97;61.55;100293.16;5078561;26;96545;-39
2024/04/19 10:14:43;;;;;;;3.67;2.10;;;13.90;99.90;;;13.85;63.27;100285.03;5049322;26;95459;-44
2024/04/19 10:17:22;;;;;;;1.83;1.40;;;13.80;99.90;;;13.69;63.37;100280.56;5037602;26;100009;-46
2024/04/19 10:19:51;;;;;;;2.67;1.57;;;13.70;99.90;;;13.76;60.74;100277.59;5067914;26;99567;-44
2024/04/19 10:22:24;;;;;;;3.10;2.07;;;13.70;99.90;;;13.72;63.99;100274.25;5084408;26;94572;-39
2024/04/19 10:25:02;;;;;;;2.43;1.90;;;13.80;99.90;;;13.79;62.41;100269.47;5090159;26;104484;-40
2024/04/19 10:27:29;;;;;;;2.80;1.70;;;13.70;99.90;;;13.58;64.82;100261.75;5096277;26;98624;-43
2024/04/19 10:30:15;;;;;;;2.87;2.17;;;13.70;99.90;;;13.45;65.67;100246.59;5150642;26;100414;-37
2024/04/19 10:32:58;;;;;;;3.43;2.40;;;13.50;99.90;;;13.70;62.66;100246.97;5120177;25;93610;-43
2024/04/19 10:35:36;;;;;;;1.87;1.67;;;13.60;99.90;;;13.77;62.54;100256.31;5143791;26;94102;-45
2024/04/19 10:38:08;;;;;;;3.83;1.97;;;13.70;99.90;;;13.62;64.66;100257.16;5126334;26;101245;-39
2024/04/19 10:40:40;;;;;;;3.70;1.83;;;13.70;99.90;;;13.35;66.49;100259.50;5111405;26;102169;-40
2024/04/19 10:43:33;;;;;;;3.10;1.70;;;13.40;99.90;;;13.40;63.45;100241.53;5065364;26;96385;-37
2024/04/19 10:46:00;;;;;;;2.27;1.10;;;13.40;99.90;;;13.00;65.92;100245.41;5127283;26;96518;-40
2024/04/19 10:48:29;;;;;;;1.97;1.10;;;13.30;99.90;;;12.53;67.23;100254.00;5064601;26;95282;-43